sensor_id;sensor_type;location;lat;lon;timestamp;P1;durP1;ratioP1;P2;durP2;ratioP2
82760;SDS011;72498;42.022;21.444;2024-01-30T00:04:40;22.95;;;12.82;;
82760;SDS011;72498;42.022;21.444;2024-01-30T00:07:27;26.27;;;11.27;;
82760;SDS011;72498;42.022;21.444;2024-01-30T00:10:23;20.15;;;10.30;;
82760;SDS011;72498;42.022;21.444;2024-01-30T00:13:07;21.02;;;10.20;;
82760;SDS011;72498;42.022;21.444;2024-01-30T00:15:38;23.63;;;10.63;;
82760;SDS011;72498;42.022;21.444;2024-01-30T00:18:10;25.65;;;11.45;;
82760;SDS011;72498;42.022;21.444;2024-01-30T00:20:59;24.38;;;12.23;;
82760;SDS011;72498;42.022;21.444;2024-01-30T00:23:33;26.25;;;10.82;;
82760;SDS011;72498;42.022;21.444;2024-01-30T00:26:01;23.00;;;10.77;;
82760;SDS011;72498;42.022;21.444;2024-01-30T00:28:34;20.55;;;11.43;;
82760;SDS011;72498;42.022;21.444;2024-01-30T00:31:06;24.88;;;11.38;;
82760;SDS011;72498;42.022;21.444;2024-01-30T00:33:58;24.85;;;11.63;;
82760;SDS011;72498;42.022;21.444;2024-01-30T00:36:39;25.25;;;11.73;;
82760;SDS011;72498;42.022;21.444;2024-01-30T00:39:19;27.17;;;11.90;;
82760;SDS011;72498;42.022;21.444;2024-01-30T00:41:54;27.67;;;12.07;;
82760;SDS011;72498;42.022;21.444;2024-01-30T00:44:23;22.92;;;10.80;;
82760;SDS011;72498;42.022;21.444;2024-01-30T00:46:56;26.52;;;12.50;;
82760;SDS011;72498;42.022;21.444;2024-01-30T00:49:28;23.80;;;11.35;;
82760;SDS011;72498;42.022;21.444;2024-01-30T00:52:00;25.38;;;12.02;;
82760;SDS011;72498;42.022;21.444;2024-01-30T00:57:14;26.55;;;12.23;;
82760;SDS011;72498;42.022;21.444;2024-01-30T00:59:46;24.58;;;12.15;;
82760;SDS011;72498;42.022;21.444;2024-01-30T01:02:25;26.30;;;12.48;;
82760;SDS011;72498;42.022;21.444;2024-01-30T01:04:51;25.50;;;12.88;;
82760;SDS011;72498;42.022;21.444;2024-01-30T01:07:40;25.92;;;11.68;;
82760;SDS011;72498;42.022;21.444;2024-01-30T01:10:28;24.45;;;11.65;;
82760;SDS011;72498;42.022;21.444;2024-01-30T01:13:05;25.27;;;10.88;;
82760;SDS011;72498;42.022;21.444;2024-01-30T01:18:47;34.53;;;14.35;;
82760;SDS011;72498;42.022;21.444;2024-01-30T01:24:19;28.80;;;13.35;;
82760;SDS011;72498;42.022;21.444;2024-01-30T01:26:47;31.95;;;15.57;;
82760;SDS011;72498;42.022;21.444;2024-01-30T01:29:17;29.45;;;13.77;;
82760;SDS011;72498;42.022;21.444;2024-01-30T01:32:03;28.52;;;14.52;;
82760;SDS011;72498;42.022;21.444;2024-01-30T01:34:29;30.05;;;15.60;;
82760;SDS011;72498;42.022;21.444;2024-01-30T01:37:00;29.98;;;15.80;;
82760;SDS011;72498;42.022;21.444;2024-01-30T01:39:28;33.15;;;15.38;;
82760;SDS011;72498;42.022;21.444;2024-01-30T01:41:56;31.75;;;14.88;;
82760;SDS011;72498;42.022;21.444;2024-01-30T01:44:25;28.60;;;14.63;;
82760;SDS011;72498;42.022;21.444;2024-01-30T01:46:51;28.90;;;14.25;;
82760;SDS011;72498;42.022;21.444;2024-01-30T01:49:18;27.45;;;13.88;;
82760;SDS011;72498;42.022;21.444;2024-01-30T01:51:46;25.60;;;14.07;;
82760;SDS011;72498;42.022;21.444;2024-01-30T01:54:14;23.67;;;11.82;;
82760;SDS011;72498;42.022;21.444;2024-01-30T01:56:45;24.98;;;11.98;;
82760;SDS011;72498;42.022;21.444;2024-01-30T01:59:14;29.23;;;15.43;;
82760;SDS011;72498;42.022;21.444;2024-01-30T02:01:56;34.10;;;15.48;;
82760;SDS011;72498;42.022;21.444;2024-01-30T02:04:26;31.02;;;15.50;;
82760;SDS011;72498;42.022;21.444;2024-01-30T02:06:53;22.90;;;11.45;;
82760;SDS011;72498;42.022;21.444;2024-01-30T02:09:19;20.65;;;10.93;;
82760;SDS011;72498;42.022;21.444;2024-01-30T02:11:48;23.23;;;10.70;;
82760;SDS011;72498;42.022;21.444;2024-01-30T02:14:15;19.27;;;10.70;;
82760;SDS011;72498;42.022;21.444;2024-01-30T02:16:44;21.38;;;11.70;;
82760;SDS011;72498;42.022;21.444;2024-01-30T02:19:10;21.33;;;11.27;;
82760;SDS011;72498;42.022;21.444;2024-01-30T02:21:41;20.63;;;10.32;;
82760;SDS011;72498;42.022;21.444;2024-01-30T02:24:12;28.48;;;10.93;;
82760;SDS011;72498;42.022;21.444;2024-01-30T02:26:38;21.25;;;10.57;;
82760;SDS011;72498;42.022;21.444;2024-01-30T02:29:05;18.02;;;9.40;;
82760;SDS011;72498;42.022;21.444;2024-01-30T02:31:31;20.98;;;10.60;;
82760;SDS011;72498;42.022;21.444;2024-01-30T02:33:58;17.70;;;9.45;;
82760;SDS011;72498;42.022;21.444;2024-01-30T02:36:33;23.52;;;11.20;;
82760;SDS011;72498;42.022;21.444;2024-01-30T02:38:59;25.50;;;10.57;;
82760;SDS011;72498;42.022;21.444;2024-01-30T02:41:33;23.15;;;10.80;;
82760;SDS011;72498;42.022;21.444;2024-01-30T02:43:59;20.58;;;10.80;;
82760;SDS011;72498;42.022;21.444;2024-01-30T02:46:25;18.67;;;10.55;;
82760;SDS011;72498;42.022;21.444;2024-01-30T02:48:53;20.58;;;10.20;;
82760;SDS011;72498;42.022;21.444;2024-01-30T02:51:21;17.05;;;9.85;;
82760;SDS011;72498;42.022;21.444;2024-01-30T02:53:47;18.23;;;8.93;;
82760;SDS011;72498;42.022;21.444;2024-01-30T02:56:13;20.02;;;9.65;;
82760;SDS011;72498;42.022;21.444;2024-01-30T02:58:43;24.63;;;9.90;;
82760;SDS011;72498;42.022;21.444;2024-01-30T03:01:10;22.05;;;10.50;;
82760;SDS011;72498;42.022;21.444;2024-01-30T03:03:36;23.73;;;11.32;;
82760;SDS011;72498;42.022;21.444;2024-01-30T03:06:03;25.58;;;11.43;;
82760;SDS011;72498;42.022;21.444;2024-01-30T03:08:29;26.90;;;11.88;;
82760;SDS011;72498;42.022;21.444;2024-01-30T03:10:57;27.13;;;11.57;;
82760;SDS011;72498;42.022;21.444;2024-01-30T03:13:25;27.17;;;11.52;;
82760;SDS011;72498;42.022;21.444;2024-01-30T03:15:52;24.15;;;12.55;;
82760;SDS011;72498;42.022;21.444;2024-01-30T03:18:19;21.45;;;11.25;;
82760;SDS011;72498;42.022;21.444;2024-01-30T03:20:45;20.10;;;10.80;;
82760;SDS011;72498;42.022;21.444;2024-01-30T03:23:11;21.27;;;10.02;;
82760;SDS011;72498;42.022;21.444;2024-01-30T03:25:43;23.77;;;10.70;;
82760;SDS011;72498;42.022;21.444;2024-01-30T03:28:10;23.50;;;10.82;;
82760;SDS011;72498;42.022;21.444;2024-01-30T03:30:36;21.08;;;10.75;;
82760;SDS011;72498;42.022;21.444;2024-01-30T03:33:04;19.20;;;9.73;;
82760;SDS011;72498;42.022;21.444;2024-01-30T03:35:33;22.98;;;11.10;;
82760;SDS011;72498;42.022;21.444;2024-01-30T03:38:04;21.05;;;10.23;;
82760;SDS011;72498;42.022;21.444;2024-01-30T03:40:31;23.05;;;11.07;;
82760;SDS011;72498;42.022;21.444;2024-01-30T03:42:59;22.08;;;10.15;;
82760;SDS011;72498;42.022;21.444;2024-01-30T03:45:27;19.20;;;9.60;;
82760;SDS011;72498;42.022;21.444;2024-01-30T03:47:55;20.40;;;10.20;;
82760;SDS011;72498;42.022;21.444;2024-01-30T03:50:21;22.20;;;10.32;;
82760;SDS011;72498;42.022;21.444;2024-01-30T03:52:55;19.80;;;9.93;;
82760;SDS011;72498;42.022;21.444;2024-01-30T03:55:24;23.45;;;10.65;;
82760;SDS011;72498;42.022;21.444;2024-01-30T03:57:51;21.42;;;9.88;;
82760;SDS011;72498;42.022;21.444;2024-01-30T04:00:17;21.50;;;10.85;;
82760;SDS011;72498;42.022;21.444;2024-01-30T04:02:45;25.30;;;11.73;;
82760;SDS011;72498;42.022;21.444;2024-01-30T04:05:11;23.65;;;10.15;;
82760;SDS011;72498;42.022;21.444;2024-01-30T04:07:42;23.15;;;11.07;;
82760;SDS011;72498;42.022;21.444;2024-01-30T04:10:09;24.48;;;11.00;;
82760;SDS011;72498;42.022;21.444;2024-01-30T04:12:35;22.48;;;10.88;;
82760;SDS011;72498;42.022;21.444;2024-01-30T04:15:02;24.13;;;11.48;;
82760;SDS011;72498;42.022;21.444;2024-01-30T04:17:29;27.92;;;13.38;;
82760;SDS011;72498;42.022;21.444;2024-01-30T04:19:56;28.27;;;14.07;;
82760;SDS011;72498;42.022;21.444;2024-01-30T04:22:24;26.80;;;12.82;;
82760;SDS011;72498;42.022;21.444;2024-01-30T04:24:50;26.00;;;12.38;;
82760;SDS011;72498;42.022;21.444;2024-01-30T04:27:18;21.17;;;10.38;;
82760;SDS011;72498;42.022;21.444;2024-01-30T04:29:44;21.40;;;10.57;;
82760;SDS011;72498;42.022;21.444;2024-01-30T04:32:13;23.05;;;10.93;;
82760;SDS011;72498;42.022;21.444;2024-01-30T04:34:41;21.50;;;10.13;;
82760;SDS011;72498;42.022;21.444;2024-01-30T04:37:08;24.27;;;9.95;;
82760;SDS011;72498;42.022;21.444;2024-01-30T04:39:36;21.23;;;10.10;;
82760;SDS011;72498;42.022;21.444;2024-01-30T04:42:02;19.90;;;9.30;;
82760;SDS011;72498;42.022;21.444;2024-01-30T04:44:28;18.60;;;9.07;;
82760;SDS011;72498;42.022;21.444;2024-01-30T04:46:54;22.17;;;10.20;;
82760;SDS011;72498;42.022;21.444;2024-01-30T04:49:24;20.83;;;9.25;;
82760;SDS011;72498;42.022;21.444;2024-01-30T04:51:50;18.45;;;8.68;;
82760;SDS011;72498;42.022;21.444;2024-01-30T04:54:16;19.02;;;9.85;;
82760;SDS011;72498;42.022;21.444;2024-01-30T04:56:44;19.98;;;8.68;;
82760;SDS011;72498;42.022;21.444;2024-01-30T04:59:10;21.08;;;10.32;;
82760;SDS011;72498;42.022;21.444;2024-01-30T05:01:36;20.42;;;10.20;;
82760;SDS011;72498;42.022;21.444;2024-01-30T05:04:03;18.05;;;9.40;;
82760;SDS011;72498;42.022;21.444;2024-01-30T05:06:30;21.42;;;10.07;;
82760;SDS011;72498;42.022;21.444;2024-01-30T05:08:57;20.95;;;10.27;;
82760;SDS011;72498;42.022;21.444;2024-01-30T05:11:26;22.00;;;11.25;;
82760;SDS011;72498;42.022;21.444;2024-01-30T05:13:54;22.73;;;10.93;;
82760;SDS011;72498;42.022;21.444;2024-01-30T05:16:20;28.02;;;12.55;;
82760;SDS011;72498;42.022;21.444;2024-01-30T05:18:48;28.00;;;12.80;;
82760;SDS011;72498;42.022;21.444;2024-01-30T05:21:18;26.55;;;13.30;;
82760;SDS011;72498;42.022;21.444;2024-01-30T05:23:46;31.95;;;14.05;;
82760;SDS011;72498;42.022;21.444;2024-01-30T05:26:12;30.17;;;13.90;;
82760;SDS011;72498;42.022;21.444;2024-01-30T05:28:44;27.60;;;12.95;;
82760;SDS011;72498;42.022;21.444;2024-01-30T05:31:15;27.27;;;13.50;;
82760;SDS011;72498;42.022;21.444;2024-01-30T05:33:41;29.45;;;13.48;;
82760;SDS011;72498;42.022;21.444;2024-01-30T05:36:07;32.67;;;13.90;;
82760;SDS011;72498;42.022;21.444;2024-01-30T05:38:33;33.60;;;13.65;;
82760;SDS011;72498;42.022;21.444;2024-01-30T05:41:03;28.13;;;13.18;;
82760;SDS011;72498;42.022;21.444;2024-01-30T05:43:29;28.88;;;13.05;;
82760;SDS011;72498;42.022;21.444;2024-01-30T05:45:55;31.02;;;13.63;;
82760;SDS011;72498;42.022;21.444;2024-01-30T05:48:23;29.38;;;14.50;;
82760;SDS011;72498;42.022;21.444;2024-01-30T05:50:49;31.80;;;14.65;;
82760;SDS011;72498;42.022;21.444;2024-01-30T05:53:16;30.27;;;13.00;;
82760;SDS011;72498;42.022;21.444;2024-01-30T05:55:43;30.15;;;14.38;;
82760;SDS011;72498;42.022;21.444;2024-01-30T05:58:10;29.80;;;14.13;;
82760;SDS011;72498;42.022;21.444;2024-01-30T06:00:42;29.70;;;14.63;;
82760;SDS011;72498;42.022;21.444;2024-01-30T06:03:08;32.22;;;14.90;;
82760;SDS011;72498;42.022;21.444;2024-01-30T06:05:37;31.67;;;14.73;;
82760;SDS011;72498;42.022;21.444;2024-01-30T06:08:06;41.03;;;16.27;;
82760;SDS011;72498;42.022;21.444;2024-01-30T06:10:33;33.05;;;16.63;;
82760;SDS011;72498;42.022;21.444;2024-01-30T06:13:06;39.63;;;17.30;;
82760;SDS011;72498;42.022;21.444;2024-01-30T06:15:32;35.05;;;16.92;;
82760;SDS011;72498;42.022;21.444;2024-01-30T06:21:06;41.17;;;18.20;;
82760;SDS011;72498;42.022;21.444;2024-01-30T06:23:33;49.15;;;21.73;;
82760;SDS011;72498;42.022;21.444;2024-01-30T06:26:06;43.95;;;20.08;;
82760;SDS011;72498;42.022;21.444;2024-01-30T06:28:50;39.25;;;19.58;;
82760;SDS011;72498;42.022;21.444;2024-01-30T06:31:39;45.70;;;22.10;;
82760;SDS011;72498;42.022;21.444;2024-01-30T06:34:28;38.92;;;18.73;;
82760;SDS011;72498;42.022;21.444;2024-01-30T06:37:44;39.38;;;17.17;;
82760;SDS011;72498;42.022;21.444;2024-01-30T06:52:48;41.92;;;20.20;;
82760;SDS011;72498;42.022;21.444;2024-01-30T06:55:22;41.22;;;21.63;;
82760;SDS011;72498;42.022;21.444;2024-01-30T06:58:03;47.22;;;22.73;;
